sensor_id;sensor_type;location;lat;lon;timestamp;pressure;altitude;pressure_sealevel;temperature;humidity
37904;BME280;23738;50.422;18.758;2023-02-26T00:00:38;97305.70;;;1.12;85.32
37904;BME280;23738;50.422;18.758;2023-02-26T00:03:05;97312.05;;;1.11;85.55
37904;BME280;23738;50.422;18.758;2023-02-26T00:05:33;97315.20;;;1.09;85.36
37904;BME280;23738;50.422;18.758;2023-02-26T00:08:00;97317.25;;;1.07;85.28
37904;BME280;23738;50.422;18.758;2023-02-26T00:10:31;97324.88;;;1.03;85.28
37904;BME280;23738;50.422;18.758;2023-02-26T00:13:00;97329.37;;;1.02;85.26
37904;BME280;23738;50.422;18.758;2023-02-26T00:15:29;97334.11;;;1.03;85.40
37904;BME280;23738;50.422;18.758;2023-02-26T00:18:01;97335.00;;;1.01;85.22
37904;BME280;23738;50.422;18.758;2023-02-26T00:20:32;97339.58;;;1.01;85.49
37904;BME280;23738;50.422;18.758;2023-02-26T00:23:01;97339.91;;;0.99;85.31
37904;BME280;23738;50.422;18.758;2023-02-26T00:25:29;97341.56;;;0.99;85.38
37904;BME280;23738;50.422;18.758;2023-02-26T00:27:58;97347.61;;;0.99;85.36
37904;BME280;23738;50.422;18.758;2023-02-26T00:30:26;97352.81;;;0.98;85.41
37904;BME280;23738;50.422;18.758;2023-02-26T00:32:55;97356.02;;;0.98;85.13
37904;BME280;23738;50.422;18.758;2023-02-26T00:35:25;97355.32;;;0.96;85.20
37904;BME280;23738;50.422;18.758;2023-02-26T00:38:01;97361.75;;;0.96;85.31
37904;BME280;23738;50.422;18.758;2023-02-26T00:40:36;97365.17;;;0.97;85.50
37904;BME280;23738;50.422;18.758;2023-02-26T00:43:08;97367.77;;;0.97;85.27
37904;BME280;23738;50.422;18.758;2023-02-26T00:45:38;97372.24;;;1.00;85.32
37904;BME280;23738;50.422;18.758;2023-02-26T00:48:25;97377.16;;;1.01;85.24
37904;BME280;23738;50.422;18.758;2023-02-26T00:51:01;97375.84;;;1.04;85.38
37904;BME280;23738;50.422;18.758;2023-02-26T00:53:32;97378.87;;;1.03;85.26
37904;BME280;23738;50.422;18.758;2023-02-26T00:56:00;97382.98;;;1.02;85.22
37904;BME280;23738;50.422;18.758;2023-02-26T00:58:27;97384.50;;;1.02;85.46
37904;BME280;23738;50.422;18.758;2023-02-26T01:00:55;97386.96;;;1.03;85.13
37904;BME280;23738;50.422;18.758;2023-02-26T01:03:23;97387.52;;;1.00;84.98
37904;BME280;23738;50.422;18.758;2023-02-26T01:05:52;97390.91;;;0.97;85.17
37904;BME280;23738;50.422;18.758;2023-02-26T01:08:26;97394.22;;;0.99;85.13
37904;BME280;23738;50.422;18.758;2023-02-26T01:10:59;97393.67;;;1.01;85.24
37904;BME280;23738;50.422;18.758;2023-02-26T01:13:27;97394.33;;;1.04;85.35
37904;BME280;23738;50.422;18.758;2023-02-26T01:16:00;97392.70;;;1.04;85.00
37904;BME280;23738;50.422;18.758;2023-02-26T01:18:35;97393.06;;;1.04;85.23
37904;BME280;23738;50.422;18.758;2023-02-26T01:21:09;97391.54;;;1.09;85.30
37904;BME280;23738;50.422;18.758;2023-02-26T01:23:42;97392.09;;;1.10;85.13
37904;BME280;23738;50.422;18.758;2023-02-26T01:26:15;97394.95;;;1.08;84.98
37904;BME280;23738;50.422;18.758;2023-02-26T01:28:47;97399.67;;;1.03;84.96
37904;BME280;23738;50.422;18.758;2023-02-26T01:31:29;97403.56;;;0.96;84.67
37904;BME280;23738;50.422;18.758;2023-02-26T01:34:01;97405.17;;;0.94;84.86
37904;BME280;23738;50.422;18.758;2023-02-26T01:36:33;97409.23;;;0.90;84.87
37904;BME280;23738;50.422;18.758;2023-02-26T01:39:07;97407.17;;;0.87;84.83
37904;BME280;23738;50.422;18.758;2023-02-26T01:41:42;97409.60;;;0.84;84.82
37904;BME280;23738;50.422;18.758;2023-02-26T01:44:19;97412.70;;;0.79;84.73
37904;BME280;23738;50.422;18.758;2023-02-26T01:47:12;97416.18;;;0.74;84.49
37904;BME280;23738;50.422;18.758;2023-02-26T01:49:43;97419.80;;;0.69;84.42
37904;BME280;23738;50.422;18.758;2023-02-26T01:55:11;97430.92;;;0.61;84.36
37904;BME280;23738;50.422;18.758;2023-02-26T01:57:38;97435.59;;;0.58;84.52
37904;BME280;23738;50.422;18.758;2023-02-26T02:00:10;97440.63;;;0.56;84.57
37904;BME280;23738;50.422;18.758;2023-02-26T02:02:38;97440.27;;;0.53;84.50
37904;BME280;23738;50.422;18.758;2023-02-26T02:05:10;97444.83;;;0.52;84.64
37904;BME280;23738;50.422;18.758;2023-02-26T02:07:39;97445.10;;;0.50;84.30
37904;BME280;23738;50.422;18.758;2023-02-26T02:10:09;97451.93;;;0.49;84.64
37904;BME280;23738;50.422;18.758;2023-02-26T02:12:40;97453.29;;;0.51;84.63
37904;BME280;23738;50.422;18.758;2023-02-26T02:15:13;97462.53;;;0.54;84.59
37904;BME280;23738;50.422;18.758;2023-02-26T02:17:49;97465.85;;;0.55;84.56
37904;BME280;23738;50.422;18.758;2023-02-26T02:20:42;97464.84;;;0.55;84.54
37904;BME280;23738;50.422;18.758;2023-02-26T02:23:20;97474.83;;;0.51;84.63
37904;BME280;23738;50.422;18.758;2023-02-26T02:26:07;97479.34;;;0.50;84.66
37904;BME280;23738;50.422;18.758;2023-02-26T02:28:43;97483.21;;;0.52;84.66
37904;BME280;23738;50.422;18.758;2023-02-26T02:31:21;97487.80;;;0.52;84.64
37904;BME280;23738;50.422;18.758;2023-02-26T02:33:56;97491.99;;;0.54;84.47
37904;BME280;23738;50.422;18.758;2023-02-26T02:36:33;97497.08;;;0.56;84.52
37904;BME280;23738;50.422;18.758;2023-02-26T02:39:02;97503.27;;;0.57;84.62
37904;BME280;23738;50.422;18.758;2023-02-26T02:41:34;97504.72;;;0.58;84.53
37904;BME280;23738;50.422;18.758;2023-02-26T02:44:05;97512.42;;;0.55;84.46
37904;BME280;23738;50.422;18.758;2023-02-26T02:46:38;97512.20;;;0.54;84.44
37904;BME280;23738;50.422;18.758;2023-02-26T02:49:10;97512.78;;;0.54;84.28
37904;BME280;23738;50.422;18.758;2023-02-26T02:51:44;97513.52;;;0.52;84.18
37904;BME280;23738;50.422;18.758;2023-02-26T02:54:15;97510.07;;;0.50;84.11
37904;BME280;23738;50.422;18.758;2023-02-26T02:56:48;97515.61;;;0.47;84.27
37904;BME280;23738;50.422;18.758;2023-02-26T02:59:20;97515.88;;;0.44;84.19
37904;BME280;23738;50.422;18.758;2023-02-26T03:01:51;97513.79;;;0.42;83.99
37904;BME280;23738;50.422;18.758;2023-02-26T03:04:22;97510.55;;;0.40;84.10
37904;BME280;23738;50.422;18.758;2023-02-26T03:06:50;97511.94;;;0.40;84.23
37904;BME280;23738;50.422;18.758;2023-02-26T03:09:17;97513.70;;;0.42;84.12
37904;BME280;23738;50.422;18.758;2023-02-26T03:11:45;97510.65;;;0.43;84.10
37904;BME280;23738;50.422;18.758;2023-02-26T03:14:14;97507.85;;;0.43;84.20
37904;BME280;23738;50.422;18.758;2023-02-26T03:17:08;97509.28;;;0.43;83.97
37904;BME280;23738;50.422;18.758;2023-02-26T03:19:48;97516.87;;;0.41;84.09
37904;BME280;23738;50.422;18.758;2023-02-26T03:22:19;97524.73;;;0.41;84.04
37904;BME280;23738;50.422;18.758;2023-02-26T03:24:54;97530.69;;;0.38;83.96
37904;BME280;23738;50.422;18.758;2023-02-26T03:27:32;97534.48;;;0.38;84.16
37904;BME280;23738;50.422;18.758;2023-02-26T03:30:02;97539.66;;;0.44;84.04
37904;BME280;23738;50.422;18.758;2023-02-26T03:32:38;97541.73;;;0.39;83.69
37904;BME280;23738;50.422;18.758;2023-02-26T03:35:13;97551.67;;;0.31;83.64
37904;BME280;23738;50.422;18.758;2023-02-26T03:37:45;97559.32;;;0.26;83.65
37904;BME280;23738;50.422;18.758;2023-02-26T03:40:17;97567.47;;;0.21;83.55
37904;BME280;23738;50.422;18.758;2023-02-26T03:42:48;97569.30;;;0.17;83.60
37904;BME280;23738;50.422;18.758;2023-02-26T03:45:21;97568.78;;;0.15;83.58
37904;BME280;23738;50.422;18.758;2023-02-26T03:47:52;97572.95;;;0.12;83.49
37904;BME280;23738;50.422;18.758;2023-02-26T03:50:24;97580.08;;;0.08;83.54
37904;BME280;23738;50.422;18.758;2023-02-26T03:52:55;97583.42;;;0.08;83.42
37904;BME280;23738;50.422;18.758;2023-02-26T03:55:27;97585.60;;;0.03;83.26
37904;BME280;23738;50.422;18.758;2023-02-26T03:57:57;97591.98;;;-0.01;83.37
37904;BME280;23738;50.422;18.758;2023-02-26T04:00:25;97595.98;;;-0.02;83.39
37904;BME280;23738;50.422;18.758;2023-02-26T04:02:58;97603.08;;;-0.04;83.35
37904;BME280;23738;50.422;18.758;2023-02-26T04:05:28;97609.16;;;-0.06;83.29
37904;BME280;23738;50.422;18.758;2023-02-26T04:07:57;97614.61;;;-0.08;83.18
37904;BME280;23738;50.422;18.758;2023-02-26T04:10:39;97617.55;;;-0.12;83.19
37904;BME280;23738;50.422;18.758;2023-02-26T04:13:08;97616.66;;;-0.13;83.23
37904;BME280;23738;50.422;18.758;2023-02-26T04:15:36;97617.84;;;-0.15;83.27
37904;BME280;23738;50.422;18.758;2023-02-26T04:18:04;97621.08;;;-0.14;83.27
37904;BME280;23738;50.422;18.758;2023-02-26T04:20:31;97619.82;;;-0.12;83.34
37904;BME280;23738;50.422;18.758;2023-02-26T04:22:58;97617.16;;;-0.11;83.36
37904;BME280;23738;50.422;18.758;2023-02-26T04:25:26;97621.55;;;-0.10;83.29
37904;BME280;23738;50.422;18.758;2023-02-26T04:27:53;97624.54;;;-0.10;83.16
37904;BME280;23738;50.422;18.758;2023-02-26T04:30:21;97621.80;;;-0.11;83.30
37904;BME280;23738;50.422;18.758;2023-02-26T04:32:48;97625.61;;;-0.09;83.21
37904;BME280;23738;50.422;18.758;2023-02-26T04:35:16;97626.52;;;-0.08;83.24
37904;BME280;23738;50.422;18.758;2023-02-26T04:37:43;97630.54;;;-0.08;83.21
37904;BME280;23738;50.422;18.758;2023-02-26T04:40:12;97632.23;;;-0.08;82.98
37904;BME280;23738;50.422;18.758;2023-02-26T04:42:40;97635.29;;;-0.09;83.12
37904;BME280;23738;50.422;18.758;2023-02-26T04:45:09;97633.19;;;-0.09;83.05
37904;BME280;23738;50.422;18.758;2023-02-26T04:47:37;97634.89;;;-0.08;83.03
37904;BME280;23738;50.422;18.758;2023-02-26T04:50:07;97643.59;;;-0.07;82.99
37904;BME280;23738;50.422;18.758;2023-02-26T04:52:34;97642.87;;;-0.07;82.94
37904;BME280;23738;50.422;18.758;2023-02-26T04:55:02;97651.13;;;-0.07;82.89
37904;BME280;23738;50.422;18.758;2023-02-26T04:57:30;97651.81;;;-0.05;82.95
37904;BME280;23738;50.422;18.758;2023-02-26T04:59:57;97654.27;;;-0.05;82.85
37904;BME280;23738;50.422;18.758;2023-02-26T05:02:25;97654.23;;;-0.07;82.94
37904;BME280;23738;50.422;18.758;2023-02-26T05:04:52;97657.63;;;-0.06;82.95
37904;BME280;23738;50.422;18.758;2023-02-26T05:07:20;97658.77;;;-0.07;82.81
37904;BME280;23738;50.422;18.758;2023-02-26T05:09:47;97670.53;;;-0.08;82.76
37904;BME280;23738;50.422;18.758;2023-02-26T05:12:15;97667.42;;;-0.12;82.82
37904;BME280;23738;50.422;18.758;2023-02-26T05:14:42;97676.02;;;-0.09;82.81
37904;BME280;23738;50.422;18.758;2023-02-26T05:17:10;97685.48;;;-0.09;82.79
37904;BME280;23738;50.422;18.758;2023-02-26T05:19:37;97691.98;;;-0.07;82.90
37904;BME280;23738;50.422;18.758;2023-02-26T05:22:04;97691.21;;;-0.03;83.05
37904;BME280;23738;50.422;18.758;2023-02-26T05:24:32;97697.96;;;0.05;83.00
37904;BME280;23738;50.422;18.758;2023-02-26T05:26:59;97696.23;;;0.07;82.98
37904;BME280;23738;50.422;18.758;2023-02-26T05:29:26;97700.67;;;0.07;82.92
37904;BME280;23738;50.422;18.758;2023-02-26T05:31:54;97707.06;;;0.06;82.73
37904;BME280;23738;50.422;18.758;2023-02-26T05:34:21;97713.89;;;0.03;82.78
37904;BME280;23738;50.422;18.758;2023-02-26T05:36:49;97723.77;;;0.01;82.76
37904;BME280;23738;50.422;18.758;2023-02-26T05:39:16;97730.30;;;0.01;82.78
37904;BME280;23738;50.422;18.758;2023-02-26T05:41:44;97734.48;;;0.05;82.88
37904;BME280;23738;50.422;18.758;2023-02-26T05:44:12;97738.64;;;0.10;83.01
37904;BME280;23738;50.422;18.758;2023-02-26T05:46:40;97740.70;;;0.14;82.98
37904;BME280;23738;50.422;18.758;2023-02-26T05:49:07;97742.47;;;0.17;82.86
37904;BME280;23738;50.422;18.758;2023-02-26T05:51:35;97756.15;;;0.18;82.72
37904;BME280;23738;50.422;18.758;2023-02-26T05:54:03;97761.92;;;0.21;82.91
37904;BME280;23738;50.422;18.758;2023-02-26T05:56:30;97763.33;;;0.21;82.73
37904;BME280;23738;50.422;18.758;2023-02-26T05:58:58;97765.73;;;0.20;82.75
37904;BME280;23738;50.422;18.758;2023-02-26T06:01:25;97766.77;;;0.18;82.76
37904;BME280;23738;50.422;18.758;2023-02-26T06:03:52;97771.73;;;0.17;82.79
37904;BME280;23738;50.422;18.758;2023-02-26T06:06:20;97779.38;;;0.16;82.65
37904;BME280;23738;50.422;18.758;2023-02-26T06:08:47;97783.19;;;0.15;82.75
37904;BME280;23738;50.422;18.758;2023-02-26T06:11:15;97789.15;;;0.14;82.77
37904;BME280;23738;50.422;18.758;2023-02-26T06:13:42;97791.77;;;0.16;82.78
37904;BME280;23738;50.422;18.758;2023-02-26T06:16:10;97800.03;;;0.18;82.79
37904;BME280;23738;50.422;18.758;2023-02-26T06:18:37;97805.98;;;0.21;82.84
37904;BME280;23738;50.422;18.758;2023-02-26T06:21:05;97805.67;;;0.25;82.89
37904;BME280;23738;50.422;18.758;2023-02-26T06:23:33;97808.45;;;0.30;82.95
37904;BME280;23738;50.422;18.758;2023-02-26T06:26:00;97812.23;;;0.31;82.78
37904;BME280;23738;50.422;18.758;2023-02-26T06:28:27;97816.05;;;0.30;82.79
37904;BME280;23738;50.422;18.758;2023-02-26T06:30:55;97822.68;;;0.30;82.67
37904;BME280;23738;50.422;18.758;2023-02-26T06:33:23;97825.86;;;0.30;82.73
37904;BME280;23738;50.422;18.758;2023-02-26T06:35:51;97830.29;;;0.28;82.78
37904;BME280;23738;50.422;18.758;2023-02-26T06:38:19;97833.37;;;0.30;82.83
37904;BME280;23738;50.422;18.758;2023-02-26T06:40:47;97837.88;;;0.32;82.72
37904;BME280;23738;50.422;18.758;2023-02-26T06:43:15;97843.77;;;0.34;82.88
37904;BME280;23738;50.422;18.758;2023-02-26T06:45:42;97845.31;;;0.36;82.73
37904;BME280;23738;50.422;18.758;2023-02-26T06:48:10;97847.25;;;0.37;82.84
37904;BME280;23738;50.422;18.758;2023-02-26T06:50:37;97849.08;;;0.40;82.89
37904;BME280;23738;50.422;18.758;2023-02-26T06:53:05;97852.55;;;0.45;83.00
37904;BME280;23738;50.422;18.758;2023-02-26T06:55:33;97858.89;;;0.51;82.95
37904;BME280;23738;50.422;18.758;2023-02-26T06:58:00;97865.66;;;0.52;82.85
37904;BME280;23738;50.422;18.758;2023-02-26T07:00:28;97870.59;;;0.52;82.70
37904;BME280;23738;50.422;18.758;2023-02-26T07:02:55;97874.02;;;0.54;83.08
37904;BME280;23738;50.422;18.758;2023-02-26T07:05:22;97872.52;;;0.58;83.01
37904;BME280;23738;50.422;18.758;2023-02-26T07:07:50;97873.73;;;0.60;82.85
37904;BME280;23738;50.422;18.758;2023-02-26T07:10:18;97872.33;;;0.62;82.92
37904;BME280;23738;50.422;18.758;2023-02-26T07:12:47;97878.36;;;0.66;82.98
37904;BME280;23738;50.422;18.758;2023-02-26T07:15:15;97878.27;;;0.73;83.06
37904;BME280;23738;50.422;18.758;2023-02-26T07:17:43;97878.25;;;0.79;83.01
37904;BME280;23738;50.422;18.758;2023-02-26T07:20:12;97875.98;;;0.77;82.94
37904;BME280;23738;50.422;18.758;2023-02-26T07:22:40;97881.24;;;0.75;82.71
37904;BME280;23738;50.422;18.758;2023-02-26T07:25:09;97887.42;;;0.72;82.71
37904;BME280;23738;50.422;18.758;2023-02-26T07:27:37;97891.49;;;0.71;82.79
37904;BME280;23738;50.422;18.758;2023-02-26T07:30:07;97901.46;;;0.68;82.49
37904;BME280;23738;50.422;18.758;2023-02-26T07:32:35;97902.33;;;0.68;82.84
37904;BME280;23738;50.422;18.758;2023-02-26T07:35:03;97910.55;;;0.66;82.62
37904;BME280;23738;50.422;18.758;2023-02-26T07:37:31;97916.88;;;0.62;82.63
37904;BME280;23738;50.422;18.758;2023-02-26T07:39:58;97923.91;;;0.61;82.71
37904;BME280;23738;50.422;18.758;2023-02-26T07:42:26;97919.60;;;0.62;82.99
37904;BME280;23738;50.422;18.758;2023-02-26T07:44:53;97925.98;;;0.66;82.88
37904;BME280;23738;50.422;18.758;2023-02-26T07:47:20;97923.83;;;0.60;82.43
37904;BME280;23738;50.422;18.758;2023-02-26T07:49:48;97921.83;;;0.57;82.67
37904;BME280;23738;50.422;18.758;2023-02-26T07:52:15;97930.67;;;0.61;82.90
37904;BME280;23738;50.422;18.758;2023-02-26T07:54:43;97931.38;;;0.64;82.67
37904;BME280;23738;50.422;18.758;2023-02-26T07:57:10;97931.94;;;0.60;82.71
37904;BME280;23738;50.422;18.758;2023-02-26T07:59:38;97938.29;;;0.62;82.73
37904;BME280;23738;50.422;18.758;2023-02-26T08:02:06;97943.30;;;0.64;82.84
37904;BME280;23738;50.422;18.758;2023-02-26T08:04:33;97942.91;;;0.63;82.45
37904;BME280;23738;50.422;18.758;2023-02-26T08:07:01;97942.92;;;0.61;82.37
37904;BME280;23738;50.422;18.758;2023-02-26T08:09:28;97948.23;;;0.63;82.50
37904;BME280;23738;50.422;18.758;2023-02-26T08:11:56;97948.61;;;0.66;82.82
37904;BME280;23738;50.422;18.758;2023-02-26T08:14:24;97949.85;;;0.70;82.63
37904;BME280;23738;50.422;18.758;2023-02-26T08:16:51;97954.70;;;0.73;82.60
37904;BME280;23738;50.422;18.758;2023-02-26T08:19:19;97958.30;;;0.75;82.55
37904;BME280;23738;50.422;18.758;2023-02-26T08:21:46;97960.27;;;0.77;82.41
37904;BME280;23738;50.422;18.758;2023-02-26T08:24:14;97960.83;;;0.78;82.29
37904;BME280;23738;50.422;18.758;2023-02-26T08:26:41;97963.11;;;0.82;81.74
37904;BME280;23738;50.422;18.758;2023-02-26T08:29:09;97966.90;;;0.87;82.24
37904;BME280;23738;50.422;18.758;2023-02-26T08:31:36;97964.22;;;0.95;81.91
37904;BME280;23738;50.422;18.758;2023-02-26T08:34:04;97970.22;;;1.14;81.42
37904;BME280;23738;50.422;18.758;2023-02-26T08:36:31;97971.64;;;1.36;80.78
37904;BME280;23738;50.422;18.758;2023-02-26T08:38:59;97970.79;;;1.53;81.11
37904;BME280;23738;50.422;18.758;2023-02-26T08:41:26;97976.32;;;1.68;81.21
37904;BME280;23738;50.422;18.758;2023-02-26T08:43:56;97975.01;;;1.93;81.31
37904;BME280;23738;50.422;18.758;2023-02-26T08:46:23;97977.98;;;2.04;80.62
37904;BME280;23738;50.422;18.758;2023-02-26T08:48:51;97973.02;;;2.00;80.32
37904;BME280;23738;50.422;18.758;2023-02-26T08:51:19;97974.20;;;1.95;80.55
37904;BME280;23738;50.422;18.758;2023-02-26T08:53:46;97978.34;;;1.96;80.02
37904;BME280;23738;50.422;18.758;2023-02-26T08:56:16;97985.69;;;2.03;81.07
37904;BME280;23738;50.422;18.758;2023-02-26T08:58:44;97990.48;;;2.12;80.80
37904;BME280;23738;50.422;18.758;2023-02-26T09:01:11;97997.60;;;2.09;78.26
37904;BME280;23738;50.422;18.758;2023-02-26T09:03:39;98007.98;;;1.98;78.40
37904;BME280;23738;50.422;18.758;2023-02-26T09:06:07;98006.42;;;1.91;79.01
37904;BME280;23738;50.422;18.758;2023-02-26T09:08:34;98011.19;;;1.85;78.26
37904;BME280;23738;50.422;18.758;2023-02-26T09:11:03;98023.23;;;1.76;78.13
37904;BME280;23738;50.422;18.758;2023-02-26T09:13:31;98024.55;;;1.70;78.49
37904;BME280;23738;50.422;18.758;2023-02-26T09:15:59;98031.06;;;1.68;78.40
37904;BME280;23738;50.422;18.758;2023-02-26T09:18:26;98034.20;;;1.66;78.74
37904;BME280;23738;50.422;18.758;2023-02-26T09:20:54;98036.95;;;1.63;79.00
37904;BME280;23738;50.422;18.758;2023-02-26T09:23:21;98034.79;;;1.57;78.32
37904;BME280;23738;50.422;18.758;2023-02-26T09:25:52;98043.00;;;1.49;79.29
37904;BME280;23738;50.422;18.758;2023-02-26T09:28:21;98059.37;;;1.33;78.74
37904;BME280;23738;50.422;18.758;2023-02-26T09:30:50;98056.79;;;1.14;78.95
37904;BME280;23738;50.422;18.758;2023-02-26T09:33:18;98059.57;;;1.03;79.32
37904;BME280;23738;50.422;18.758;2023-02-26T09:35:47;98059.65;;;1.03;79.16
37904;BME280;23738;50.422;18.758;2023-02-26T09:38:15;98062.94;;;1.06;79.64
37904;BME280;23738;50.422;18.758;2023-02-26T09:40:45;98068.67;;;1.11;79.32
37904;BME280;23738;50.422;18.758;2023-02-26T09:43:37;98069.64;;;1.10;79.13
37904;BME280;23738;50.422;18.758;2023-02-26T09:46:13;98073.99;;;1.17;79.33
37904;BME280;23738;50.422;18.758;2023-02-26T09:48:45;98078.02;;;1.26;79.30
37904;BME280;23738;50.422;18.758;2023-02-26T09:51:18;98078.77;;;1.47;79.55
37904;BME280;23738;50.422;18.758;2023-02-26T09:53:48;98083.63;;;1.56;78.78
37904;BME280;23738;50.422;18.758;2023-02-26T09:56:22;98082.46;;;1.68;79.08
37904;BME280;23738;50.422;18.758;2023-02-26T09:58:51;98080.28;;;2.01;79.23
37904;BME280;23738;50.422;18.758;2023-02-26T10:01:25;98076.42;;;2.11;79.05
37904;BME280;23738;50.422;18.758;2023-02-26T10:04:02;98078.70;;;2.19;79.64
37904;BME280;23738;50.422;18.758;2023-02-26T10:06:37;98082.13;;;2.30;79.68
37904;BME280;23738;50.422;18.758;2023-02-26T10:09:19;98078.91;;;2.24;78.53
37904;BME280;23738;50.422;18.758;2023-02-26T10:11:52;98088.57;;;2.11;79.11
37904;BME280;23738;50.422;18.758;2023-02-26T10:14:25;98094.09;;;2.02;78.97
37904;BME280;23738;50.422;18.758;2023-02-26T10:16:58;98096.36;;;1.91;78.57
37904;BME280;23738;50.422;18.758;2023-02-26T10:19:31;98101.30;;;1.84;78.90
37904;BME280;23738;50.422;18.758;2023-02-26T10:22:14;98101.73;;;1.90;78.74
37904;BME280;23738;50.422;18.758;2023-02-26T10:24:45;98105.95;;;1.96;79.14
37904;BME280;23738;50.422;18.758;2023-02-26T10:27:19;98107.93;;;1.99;78.09
37904;BME280;23738;50.422;18.758;2023-02-26T10:29:56;98105.87;;;1.99;78.75
37904;BME280;23738;50.422;18.758;2023-02-26T10:32:29;98106.96;;;1.89;76.86
37904;BME280;23738;50.422;18.758;2023-02-26T10:35:02;98109.40;;;1.81;77.79
37904;BME280;23738;50.422;18.758;2023-02-26T10:37:42;98124.39;;;1.79;78.43
37904;BME280;23738;50.422;18.758;2023-02-26T10:40:15;98130.09;;;1.86;78.80
37904;BME280;23738;50.422;18.758;2023-02-26T10:42:46;98132.71;;;2.01;79.01
37904;BME280;23738;50.422;18.758;2023-02-26T10:45:26;98136.63;;;2.08;78.99
37904;BME280;23738;50.422;18.758;2023-02-26T10:48:07;98142.82;;;2.09;78.07
37904;BME280;23738;50.422;18.758;2023-02-26T10:50:45;98147.01;;;2.01;77.98
37904;BME280;23738;50.422;18.758;2023-02-26T10:53:14;98158.49;;;1.93;77.81
37904;BME280;23738;50.422;18.758;2023-02-26T10:55:43;98159.27;;;1.89;77.81
37904;BME280;23738;50.422;18.758;2023-02-26T10:58:14;98170.05;;;1.89;78.70
37904;BME280;23738;50.422;18.758;2023-02-26T11:00:45;98177.09;;;1.99;78.29
37904;BME280;23738;50.422;18.758;2023-02-26T11:03:17;98177.00;;;2.05;78.46
37904;BME280;23738;50.422;18.758;2023-02-26T11:05:45;98182.81;;;2.09;78.45
37904;BME280;23738;50.422;18.758;2023-02-26T11:08:19;98181.18;;;2.13;78.62
37904;BME280;23738;50.422;18.758;2023-02-26T11:10:52;98184.10;;;2.11;77.87
37904;BME280;23738;50.422;18.758;2023-02-26T11:13:21;98187.24;;;2.15;78.32
37904;BME280;23738;50.422;18.758;2023-02-26T11:15:50;98190.92;;;2.16;78.05
37904;BME280;23738;50.422;18.758;2023-02-26T11:18:22;98197.11;;;2.13;77.29
37904;BME280;23738;50.422;18.758;2023-02-26T11:20:54;98199.79;;;2.14;78.23
37904;BME280;23738;50.422;18.758;2023-02-26T11:23:26;98199.70;;;2.23;78.00
37904;BME280;23738;50.422;18.758;2023-02-26T11:25:59;98206.77;;;2.22;77.08
37904;BME280;23738;50.422;18.758;2023-02-26T11:28:33;98213.41;;;2.15;77.36
37904;BME280;23738;50.422;18.758;2023-02-26T11:31:05;98211.97;;;2.14;76.95
37904;BME280;23738;50.422;18.758;2023-02-26T11:33:37;98212.55;;;2.10;77.06
37904;BME280;23738;50.422;18.758;2023-02-26T11:36:09;98218.15;;;2.17;77.55
37904;BME280;23738;50.422;18.758;2023-02-26T11:38:37;98217.48;;;2.32;78.02
37904;BME280;23738;50.422;18.758;2023-02-26T11:41:06;98225.64;;;2.42;77.73
37904;BME280;23738;50.422;18.758;2023-02-26T11:43:38;98229.55;;;2.48;77.52
37904;BME280;23738;50.422;18.758;2023-02-26T11:46:08;98228.97;;;2.54;77.65
37904;BME280;23738;50.422;18.758;2023-02-26T11:48:39;98231.90;;;2.49;76.41
37904;BME280;23738;50.422;18.758;2023-02-26T11:51:10;98237.71;;;2.40;76.62
37904;BME280;23738;50.422;18.758;2023-02-26T11:53:47;98239.34;;;2.27;76.78
37904;BME280;23738;50.422;18.758;2023-02-26T11:56:21;98244.04;;;2.23;76.83
37904;BME280;23738;50.422;18.758;2023-02-26T11:58:52;98242.02;;;2.14;76.37
37904;BME280;23738;50.422;18.758;2023-02-26T12:01:22;98241.72;;;2.05;76.96
37904;BME280;23738;50.422;18.758;2023-02-26T12:03:52;98246.75;;;2.04;76.74
37904;BME280;23738;50.422;18.758;2023-02-26T12:06:23;98243.59;;;1.95;76.00
37904;BME280;23738;50.422;18.758;2023-02-26T12:08:51;98244.81;;;1.84;76.55
37904;BME280;23738;50.422;18.758;2023-02-26T12:11:34;98250.09;;;1.82;76.76
37904;BME280;23738;50.422;18.758;2023-02-26T12:14:20;98252.89;;;1.80;76.57
37904;BME280;23738;50.422;18.758;2023-02-26T12:17:03;98253.40;;;1.74;76.41
37904;BME280;23738;50.422;18.758;2023-02-26T12:19:40;98255.55;;;1.66;76.21
37904;BME280;23738;50.422;18.758;2023-02-26T12:22:28;98261.60;;;1.55;76.29
37904;BME280;23738;50.422;18.758;2023-02-26T12:25:11;98263.34;;;1.50;76.17
37904;BME280;23738;50.422;18.758;2023-02-26T12:27:58;98266.34;;;1.37;75.88
37904;BME280;23738;50.422;18.758;2023-02-26T12:30:43;98271.48;;;1.31;76.46
37904;BME280;23738;50.422;18.758;2023-02-26T12:33:19;98274.50;;;1.28;76.44
37904;BME280;23738;50.422;18.758;2023-02-26T12:36:02;98278.58;;;1.27;76.49
37904;BME280;23738;50.422;18.758;2023-02-26T12:38:40;98284.06;;;1.26;76.39
37904;BME280;23738;50.422;18.758;2023-02-26T12:41:31;98285.95;;;1.24;76.47
37904;BME280;23738;50.422;18.758;2023-02-26T12:44:18;98291.20;;;1.19;76.56
37904;BME280;23738;50.422;18.758;2023-02-26T12:50:01;98294.69;;;1.17;76.64
37904;BME280;23738;50.422;18.758;2023-02-26T12:52:50;98297.86;;;1.16;77.10
37904;BME280;23738;50.422;18.758;2023-02-26T12:55:28;98296.28;;;1.20;77.07
37904;BME280;23738;50.422;18.758;2023-02-26T13:01:04;98311.79;;;1.51;77.78
37904;BME280;23738;50.422;18.758;2023-02-26T13:03:43;98310.14;;;1.72;78.02
37904;BME280;23738;50.422;18.758;2023-02-26T13:06:43;98317.00;;;1.89;77.65
37904;BME280;23738;50.422;18.758;2023-02-26T13:09:24;98329.45;;;2.05;77.95
37904;BME280;23738;50.422;18.758;2023-02-26T13:12:03;98331.05;;;2.08;77.42
37904;BME280;23738;50.422;18.758;2023-02-26T13:14:41;98329.61;;;2.07;77.57
37904;BME280;23738;50.422;18.758;2023-02-26T13:17:17;98335.50;;;2.04;77.26
37904;BME280;23738;50.422;18.758;2023-02-26T13:19:48;98333.20;;;2.04;77.50
37904;BME280;23738;50.422;18.758;2023-02-26T13:22:20;98329.73;;;2.11;77.45
37904;BME280;23738;50.422;18.758;2023-02-26T13:24:54;98337.12;;;2.15;77.50
37904;BME280;23738;50.422;18.758;2023-02-26T13:27:26;98334.50;;;2.21;77.18
37904;BME280;23738;50.422;18.758;2023-02-26T13:30:19;98337.89;;;2.25;77.47